Time;durP1;ratioP1;P1;durP2;ratioP2;P2;SDS_P1;SDS_P2;PMS_P1;PMS_P2;Temp;Humidity;BMP_temperature;BMP_pressure;BME280_temperature;BME280_humidity;BME280_pressure;Samples;Min_cycle;Max_cycle;Signal;HPM_P1;HPM_P2
2022/02/17 00:00:59;;;;;;;0.25;0.25;;;13.50;91.10;;;;;;4981925;28;20110;-68
2022/02/17 00:03:25;;;;;;;0.40;0.32;;;13.50;91.30;;;;;;4983548;28;20229;-69
2022/02/17 00:05:51;;;;;;;1.52;0.30;;;13.50;91.50;;;;;;4984589;28;20029;-68
2022/02/17 00:08:18;;;;;;;0.20;0.20;;;13.60;91.60;;;;;;4986172;28;20407;-68
2022/02/17 00:10:44;;;;;;;0.30;0.30;;;13.50;92.00;;;;;;4987362;28;20092;-69
2022/02/17 00:13:09;;;;;;;1.02;0.25;;;13.40;92.60;;;;;;4985744;28;20034;-68
2022/02/17 00:15:36;;;;;;;0.20;0.20;;;13.40;92.90;;;;;;4983066;28;20034;-68
2022/02/17 00:18:11;;;;;;;0.25;0.25;;;13.20;93.00;;;;;;4984875;28;20659;-69
2022/02/17 00:20:37;;;;;;;0.20;0.20;;;13.20;92.90;;;;;;4983895;28;20049;-69
2022/02/17 00:23:02;;;;;;;0.20;0.20;;;13.30;92.70;;;;;;4985211;28;20628;-68
2022/02/17 00:25:28;;;;;;;0.52;0.22;;;13.30;92.40;;;;;;4984647;28;20097;-68
2022/02/17 00:27:54;;;;;;;0.20;0.20;;;13.40;93.70;;;;;;4985796;28;20489;-68
2022/02/17 00:30:20;;;;;;;0.20;0.20;;;13.20;94.30;;;;;;4988010;28;20469;-69
2022/02/17 00:32:45;;;;;;;0.38;0.28;;;13.00;94.70;;;;;;4985081;28;20038;-68
2022/02/17 00:35:11;;;;;;;2.47;1.00;;;12.90;95.00;;;;;;4985194;28;20352;-69
2022/02/17 00:37:37;;;;;;;1.05;0.30;;;12.90;95.50;;;;;;4984656;28;20041;-68
2022/02/17 00:40:05;;;;;;;1.13;0.30;;;12.80;95.90;;;;;;5000128;28;20035;-68
2022/02/17 00:42:30;;;;;;;0.55;0.22;;;12.70;96.20;;;;;;4985418;28;20777;-68
2022/02/17 00:44:56;;;;;;;2.80;0.32;;;12.70;96.70;;;;;;4985457;28;20034;-69
2022/02/17 00:47:22;;;;;;;0.85;0.28;;;12.50;97.00;;;;;;4983632;28;20041;-68
2022/02/17 00:49:49;;;;;;;1.38;0.40;;;12.50;97.30;;;;;;4991361;28;20410;-69
2022/02/17 00:52:15;;;;;;;0.63;0.20;;;12.50;97.30;;;;;;4985434;28;20039;-69
2022/02/17 00:54:41;;;;;;;0.17;0.17;;;12.60;97.30;;;;;;4988095;28;20551;-68
2022/02/17 00:57:08;;;;;;;0.55;0.25;;;12.50;97.40;;;;;;4985168;28;20557;-69
2022/02/17 00:59:34;;;;;;;1.45;0.20;;;12.40;97.60;;;;;;4987462;28;20065;-68
2022/02/17 01:02:01;;;;;;;0.03;0.00;;;12.30;97.60;;;;;;4988134;28;20031;-69
2022/02/17 01:04:27;;;;;;;0.50;0.20;;;12.40;97.40;;;;;;4984955;28;20677;-69
2022/02/17 01:06:53;;;;;;;1.23;0.30;;;12.40;97.40;;;;;;4999583;28;20034;-69
2022/02/17 01:09:19;;;;;;;4.70;0.35;;;12.30;97.30;;;;;;4979537;28;20026;-69
2022/02/17 01:11:45;;;;;;;2.17;0.52;;;12.30;97.60;;;;;;4984915;28;20049;-69
2022/02/17 01:14:12;;;;;;;1.63;0.52;;;12.20;96.10;;;;;;4984062;28;20065;-68
2022/02/17 01:16:38;;;;;;;3.65;0.80;;;11.90;94.00;;;;;;4982079;28;20788;-68
2022/02/17 01:19:22;;;;;;;3.72;0.47;;;11.40;94.10;;;;;;4981050;28;20041;-68
2022/02/17 01:21:50;;;;;;;2.63;0.70;;;10.80;93.90;;;;;;4987327;28;20105;-69
2022/02/17 01:24:16;;;;;;;2.70;0.50;;;10.40;94.00;;;;;;4983783;28;20769;-68
2022/02/17 01:26:43;;;;;;;3.72;0.68;;;10.10;94.60;;;;;;4992093;28;20034;-68
2022/02/17 01:29:15;;;;;;;2.17;0.80;;;9.80;95.10;;;;;;4982793;28;20121;-68
2022/02/17 01:31:41;;;;;;;4.40;0.80;;;9.70;95.40;;;;;;4982894;28;20038;-68
2022/02/17 01:34:12;;;;;;;4.32;0.68;;;9.60;95.60;;;;;;4982330;28;20030;-68
2022/02/17 01:36:47;;;;;;;5.03;1.38;;;9.50;95.90;;;;;;4978402;28;20543;-68
2022/02/17 01:39:13;;;;;;;3.88;0.63;;;9.50;95.90;;;;;;5009821;28;20026;-68
2022/02/17 01:41:42;;;;;;;2.38;0.70;;;9.50;95.60;;;;;;4984246;28;20371;-71
2022/02/17 01:44:13;;;;;;;2.58;0.45;;;9.50;95.90;;;;;;4982176;28;20126;-71
2022/02/17 01:46:41;;;;;;;4.00;0.65;;;9.50;95.90;;;;;;4981843;28;20850;-72
2022/02/17 01:49:09;;;;;;;3.47;0.75;;;9.50;95.40;;;;;;4982665;28;20049;-71
2022/02/17 01:51:35;;;;;;;2.45;1.33;;;9.50;95.30;;;;;;4980102;28;20042;-72
2022/02/17 01:54:03;;;;;;;3.60;0.50;;;9.60;95.00;;;;;;4982585;28;20038;-72
2022/02/17 01:56:31;;;;;;;3.35;0.60;;;9.60;95.20;;;;;;4982301;28;20050;-71
2022/02/17 01:59:06;;;;;;;3.28;0.50;;;9.60;94.50;;;;;;4984172;28;20031;-71
2022/02/17 02:01:34;;;;;;;5.85;0.93;;;9.60;94.40;;;;;;4995543;28;20035;-72
2022/02/17 02:04:01;;;;;;;1.77;0.73;;;9.70;94.20;;;;;;4981698;28;20045;-68
2022/02/17 02:06:27;;;;;;;4.95;0.90;;;9.80;93.70;;;;;;4982449;28;20026;-67
2022/02/17 02:08:59;;;;;;;3.25;1.05;;;9.80;94.00;;;;;;4979641;28;20499;-67
2022/02/17 02:11:28;;;;;;;3.13;0.90;;;9.80;93.80;;;;;;4982289;28;20410;-66
2022/02/17 02:14:00;;;;;;;5.43;1.00;;;9.80;93.70;;;;;;4979596;28;20081;-68
2022/02/17 02:16:30;;;;;;;8.35;1.20;;;9.80;93.50;;;;;;4990258;28;20030;-68
2022/02/17 02:18:56;;;;;;;3.10;0.90;;;9.70;93.60;;;;;;4998060;28;20117;-68
2022/02/17 02:21:23;;;;;;;5.80;0.95;;;9.60;93.70;;;;;;4982095;28;20121;-68
2022/02/17 02:23:49;;;;;;;9.43;1.33;;;9.50;94.30;;;;;;4982417;28;20033;-67
2022/02/17 02:26:15;;;;;;;7.30;1.02;;;9.40;94.20;;;;;;4998179;28;20030;-68
2022/02/17 02:28:42;;;;;;;6.13;1.50;;;9.40;94.30;;;;;;4979278;28;20499;-67
2022/02/17 02:31:08;;;;;;;8.35;2.17;;;9.40;94.50;;;;;;4989666;28;20042;-67
2022/02/17 02:33:34;;;;;;;12.65;1.30;;;9.30;94.50;;;;;;4985669;28;20035;-68
2022/02/17 02:36:01;;;;;;;6.32;0.85;;;9.30;94.30;;;;;;4985486;28;20036;-67
2022/02/17 02:38:29;;;;;;;8.27;1.15;;;9.30;94.50;;;;;;4985488;28;20768;-67
2022/02/17 02:40:55;;;;;;;4.78;0.93;;;9.20;94.60;;;;;;4982299;28;20125;-68
2022/02/17 02:43:44;;;;;;;11.13;1.50;;;9.20;94.40;;;;;;4976782;28;20046;-67
2022/02/17 02:46:14;;;;;;;7.65;1.10;;;9.20;94.70;;;;;;4981183;28;20504;-68
2022/02/17 02:48:41;;;;;;;5.57;1.08;;;9.20;94.00;;;;;;4979689;28;20046;-68
2022/02/17 02:51:11;;;;;;;4.80;0.70;;;9.30;94.20;;;;;;4980933;28;20672;-67
2022/02/17 02:53:36;;;;;;;5.97;1.02;;;9.30;93.50;;;;;;4982537;28;20045;-67
2022/02/17 02:56:02;;;;;;;7.18;1.20;;;9.40;93.80;;;;;;4978784;28;20058;-68
2022/02/17 02:58:28;;;;;;;7.38;1.30;;;9.60;93.00;;;;;;4980553;28;20026;-68
2022/02/17 03:00:54;;;;;;;5.82;0.85;;;9.60;92.00;;;;;;4980809;28;20133;-68
2022/02/17 03:03:20;;;;;;;5.22;1.20;;;9.60;91.80;;;;;;4982263;28;20097;-68
2022/02/17 03:05:46;;;;;;;5.18;1.30;;;9.70;91.00;;;;;;4980421;28;20049;-68
2022/02/17 03:08:14;;;;;;;3.13;0.85;;;9.70;91.60;;;;;;4980620;28;20022;-67
2022/02/17 03:10:40;;;;;;;4.95;0.77;;;9.70;90.90;;;;;;4980778;28;20112;-68
2022/02/17 03:13:24;;;;;;;6.15;1.20;;;9.70;90.60;;;;;;4976927;28;20037;-68
2022/02/17 03:15:49;;;;;;;6.85;1.00;;;9.80;90.70;;;;;;4979991;28;20172;-68
2022/02/17 03:18:15;;;;;;;1.63;0.90;;;9.70;90.00;;;;;;4989285;28;20480;-68
2022/02/17 03:20:42;;;;;;;6.13;0.75;;;9.80;90.00;;;;;;4982019;28;20498;-68
2022/02/17 03:23:15;;;;;;;12.65;1.20;;;9.80;90.20;;;;;;4980307;28;20139;-68
2022/02/17 03:25:41;;;;;;;4.55;0.90;;;9.80;90.30;;;;;;4965250;28;20084;-68
2022/02/17 03:28:09;;;;;;;7.00;1.15;;;9.70;90.60;;;;;;4982416;28;20030;-68
2022/02/17 03:30:48;;;;;;;7.85;1.17;;;9.60;90.70;;;;;;4980587;28;20042;-68
2022/02/17 03:33:18;;;;;;;4.50;1.10;;;9.50;90.10;;;;;;4980880;28;20034;-68
2022/02/17 03:35:44;;;;;;;4.50;0.80;;;9.50;90.50;;;;;;4982823;28;20104;-68
2022/02/17 03:38:10;;;;;;;3.90;0.90;;;9.50;90.70;;;;;;4981532;28;20042;-68
2022/02/17 03:40:36;;;;;;;5.03;1.25;;;9.70;91.00;;;;;;4973556;28;20541;-68
2022/02/17 03:43:02;;;;;;;5.75;0.80;;;9.80;90.80;;;;;;4980417;28;20041;-67
2022/02/17 03:45:31;;;;;;;5.43;0.95;;;9.90;90.60;;;;;;4988569;28;20592;-68
2022/02/17 03:48:06;;;;;;;6.35;1.15;;;9.90;90.60;;;;;;4996324;28;20755;-68
2022/02/17 03:50:32;;;;;;;4.57;1.23;;;9.90;90.30;;;;;;4979276;28;20108;-68
2022/02/17 03:53:17;;;;;;;7.88;1.25;;;9.90;90.30;;;;;;4983458;28;20085;-67
2022/02/17 03:55:50;;;;;;;3.28;0.82;;;9.90;90.10;;;;;;4981185;28;20333;-68
2022/02/17 04:01:04;;;;;;;2.65;0.60;;;9.90;89.40;;;;;;4979247;28;20023;-68
2022/02/17 04:03:34;;;;;;;5.80;0.80;;;9.90;89.10;;;;;;4980369;28;20657;-68
2022/02/17 04:06:01;;;;;;;3.40;0.93;;;9.90;89.30;;;;;;4979531;28;20041;-68
2022/02/17 04:08:27;;;;;;;2.58;0.73;;;10.00;90.10;;;;;;4976873;28;20038;-68
2022/02/17 04:10:52;;;;;;;3.75;1.10;;;10.00;90.20;;;;;;4982043;28;20027;-69
2022/02/17 04:13:21;;;;;;;7.15;0.90;;;10.10;90.20;;;;;;4980009;28;20042;-68
2022/02/17 04:15:49;;;;;;;4.03;0.90;;;10.10;90.10;;;;;;4983041;28;20022;-68
2022/02/17 04:18:33;;;;;;;2.85;0.75;;;10.10;90.00;;;;;;4980883;28;20101;-68
2022/02/17 04:21:08;;;;;;;4.13;1.75;;;10.20;89.90;;;;;;4978430;28;20118;-68
2022/02/17 04:23:58;;;;;;;3.97;0.98;;;10.20;89.30;;;;;;4986160;28;20154;-68
2022/02/17 04:26:30;;;;;;;7.93;1.10;;;10.30;88.90;;;;;;4979651;28;20040;-68
2022/02/17 04:29:11;;;;;;;6.60;1.00;;;10.40;88.30;;;;;;4993732;28;20046;-68
2022/02/17 04:31:48;;;;;;;6.05;1.10;;;10.40;87.30;;;;;;4979708;28;20045;-68
2022/02/17 04:34:13;;;;;;;5.63;1.15;;;10.50;85.90;;;;;;4981587;28;20031;-68
2022/02/17 04:36:40;;;;;;;6.70;1.75;;;10.50;86.50;;;;;;4979469;28;20565;-68
2022/02/17 04:39:06;;;;;;;8.32;1.23;;;10.50;86.40;;;;;;4978604;28;20027;-68
2022/02/17 04:44:25;;;;;;;11.15;1.88;;;10.50;83.40;;;;;;4988623;28;20034;-68
2022/02/17 04:46:50;;;;;;;6.80;1.13;;;10.50;83.10;;;;;;4981836;28;20093;-68
2022/02/17 04:49:16;;;;;;;7.25;1.08;;;10.60;82.60;;;;;;4982078;28;20034;-68
2022/02/17 04:51:42;;;;;;;8.77;1.58;;;10.50;83.10;;;;;;4982858;28;20123;-68
2022/02/17 04:54:14;;;;;;;6.20;1.83;;;10.50;80.70;;;;;;4980390;28;20037;-67
2022/02/17 04:56:42;;;;;;;6.25;1.10;;;10.50;79.90;;;;;;4984089;28;20022;-68
2022/02/17 04:59:08;;;;;;;7.78;1.83;;;10.50;80.10;;;;;;4982053;28;20077;-68
2022/02/17 05:01:41;;;;;;;11.35;1.60;;;10.50;78.80;;;;;;4983977;28;20634;-68
2022/02/17 05:04:32;;;;;;;9.40;1.48;;;10.60;78.70;;;;;;4982998;28;20022;-68
2022/02/17 05:07:01;;;;;;;6.78;1.33;;;10.50;77.80;;;;;;5000256;28;20022;-68
2022/02/17 05:09:27;;;;;;;8.40;1.25;;;10.60;78.80;;;;;;4983160;28;20101;-68
2022/02/17 05:11:54;;;;;;;6.20;1.20;;;10.60;77.40;;;;;;4976506;28;20035;-69
2022/02/17 05:14:24;;;;;;;8.50;1.10;;;10.60;77.60;;;;;;4983061;28;20034;-68
2022/02/17 05:16:50;;;;;;;7.35;1.65;;;10.70;78.30;;;;;;4984904;28;20096;-68
2022/02/17 05:19:16;;;;;;;7.32;1.50;;;10.70;79.00;;;;;;4989843;28;20040;-68
2022/02/17 05:22:14;;;;;;;6.38;1.20;;;10.70;78.00;;;;;;4973910;28;20058;-69
2022/02/17 05:24:58;;;;;;;6.28;1.35;;;10.60;78.70;;;;;;4986334;28;20037;-68
2022/02/17 05:27:42;;;;;;;11.65;1.40;;;10.60;79.70;;;;;;4979298;28;20101;-68
2022/02/17 05:30:43;;;;;;;10.23;1.33;;;10.60;79.10;;;;;;4973578;28;20035;-68
2022/02/17 05:33:27;;;;;;;7.05;1.60;;;10.40;72.30;;;;;;4985126;28;20060;-68
2022/02/17 05:36:16;;;;;;;10.25;1.35;;;10.20;71.00;;;;;;4968419;28;20035;-68
2022/02/17 05:39:05;;;;;;;6.15;1.50;;;9.90;69.60;;;;;;4976189;28;20554;-68
2022/02/17 05:41:50;;;;;;;6.93;1.00;;;9.80;71.10;;;;;;4983444;28;20881;-69
2022/02/17 05:44:16;;;;;;;10.35;1.33;;;9.60;71.70;;;;;;4984237;28;20038;-68
2022/02/17 05:46:42;;;;;;;7.40;1.50;;;9.50;73.20;;;;;;4984013;28;20049;-68
2022/02/17 05:49:08;;;;;;;6.32;1.40;;;9.40;73.80;;;;;;4984677;28;20026;-68
2022/02/17 05:51:33;;;;;;;7.72;1.20;;;9.40;74.50;;;;;;4980476;28;20046;-68
2022/02/17 05:53:59;;;;;;;7.50;1.42;;;9.40;74.50;;;;;;4986665;28;20033;-68
2022/02/17 05:56:25;;;;;;;10.25;1.25;;;9.40;74.20;;;;;;4980379;28;20566;-68
2022/02/17 05:58:51;;;;;;;9.55;1.17;;;9.40;75.50;;;;;;4979067;28;20030;-68
2022/02/17 06:01:16;;;;;;;6.22;0.95;;;9.40;75.40;;;;;;4976716;28;20085;-68
2022/02/17 06:03:42;;;;;;;10.73;1.73;;;9.40;75.90;;;;;;4983122;28;20605;-68
2022/02/17 06:06:08;;;;;;;6.93;1.40;;;9.40;76.00;;;;;;4978404;28;20034;-67
2022/02/17 06:08:33;;;;;;;9.18;1.50;;;9.30;77.10;;;;;;4991294;28;20407;-68
2022/02/17 06:10:59;;;;;;;12.32;1.70;;;9.30;76.30;;;;;;4973322;28;20031;-68
2022/02/17 06:13:25;;;;;;;6.10;1.20;;;9.40;76.30;;;;;;4974509;28;20022;-68
2022/02/17 06:15:51;;;;;;;8.57;2.08;;;9.40;76.70;;;;;;4974807;28;20483;-68
2022/02/17 06:18:16;;;;;;;5.85;1.35;;;9.20;76.40;;;;;;4975776;28;20087;-68
2022/02/17 06:20:42;;;;;;;7.72;1.60;;;9.30;76.40;;;;;;4973345;28;20026;-67
2022/02/17 06:23:08;;;;;;;10.60;1.65;;;9.30;75.70;;;;;;4976467;28;20715;-68
2022/02/17 06:25:33;;;;;;;10.15;1.83;;;9.20;77.10;;;;;;4983013;28;20038;-67
2022/02/17 06:28:00;;;;;;;5.75;1.17;;;9.20;75.20;;;;;;4977500;28;20869;-68
2022/02/17 06:30:25;;;;;;;6.53;1.30;;;9.10;75.20;;;;;;4977003;28;20565;-68
2022/02/17 06:32:54;;;;;;;7.47;1.35;;;9.20;74.90;;;;;;4975031;28;20567;-68
2022/02/17 06:35:27;;;;;;;8.43;1.45;;;9.20;74.70;;;;;;4986232;28;20038;-67
2022/02/17 06:37:53;;;;;;;12.57;2.03;;;9.30;74.30;;;;;;4972214;28;20173;-68
2022/02/17 06:40:20;;;;;;;7.53;1.98;;;9.30;73.20;;;;;;4976692;28;20117;-68
2022/02/17 06:42:47;;;;;;;10.57;1.50;;;9.30;72.70;;;;;;4978383;28;20056;-68
2022/02/17 06:45:14;;;;;;;7.70;1.60;;;9.30;73.20;;;;;;4986100;28;20827;-69
2022/02/17 06:47:40;;;;;;;9.43;1.50;;;9.30;73.20;;;;;;4983860;28;20073;-68
2022/02/17 06:50:07;;;;;;;8.82;1.73;;;9.30;71.70;;;;;;4986045;28;20038;-68
2022/02/17 06:52:33;;;;;;;7.68;1.60;;;9.40;72.30;;;;;;4974495;28;20101;-68
2022/02/17 06:54:59;;;;;;;8.40;1.30;;;9.40;72.30;;;;;;4984968;28;20481;-68
2022/02/17 06:57:25;;;;;;;9.85;1.30;;;9.50;71.80;;;;;;4979621;28;20130;-69
2022/02/17 06:59:52;;;;;;;7.15;1.48;;;9.50;71.90;;;;;;4981670;28;20113;-68
2022/02/17 07:02:24;;;;;;;13.27;1.83;;;9.60;69.80;;;;;;4976835;28;20027;-68
2022/02/17 07:04:50;;;;;;;6.53;1.67;;;9.70;70.60;;;;;;4973782;28;20473;-68
2022/02/17 07:07:16;;;;;;;7.30;1.40;;;9.80;69.40;;;;;;4970623;28;20027;-68
2022/02/17 07:09:42;;;;;;;9.80;2.00;;;9.90;68.90;;;;;;4979644;28;20034;-67
2022/02/17 07:12:08;;;;;;;12.35;2.33;;;10.00;69.00;;;;;;4980658;28;20589;-68
2022/02/17 07:14:34;;;;;;;8.45;1.90;;;10.00;67.50;;;;;;4981117;28;20030;-69
2022/02/17 07:17:00;;;;;;;5.78;1.50;;;10.10;67.50;;;;;;4972257;28;20041;-68
2022/02/17 07:19:26;;;;;;;12.20;3.17;;;10.10;66.40;;;;;;4975666;28;20030;-67
2022/02/17 07:21:52;;;;;;;8.48;1.58;;;10.20;66.40;;;;;;4977224;28;20023;-66
2022/02/17 07:24:19;;;;;;;12.88;1.88;;;10.30;65.60;;;;;;4981545;28;20029;-67
2022/02/17 07:26:45;;;;;;;11.32;1.83;;;10.50;65.20;;;;;;4977148;28;20046;-66
2022/02/17 07:29:13;;;;;;;7.97;1.35;;;10.60;63.60;;;;;;4982754;28;20042;-66
2022/02/17 07:31:39;;;;;;;8.43;1.50;;;10.50;62.70;;;;;;4988173;28;20510;-67
2022/02/17 07:34:06;;;;;;;11.13;1.58;;;10.40;63.10;;;;;;4983097;28;20077;-67
2022/02/17 07:36:32;;;;;;;6.35;1.40;;;10.40;63.80;;;;;;4974919;28;20027;-66
2022/02/17 07:38:58;;;;;;;8.90;1.10;;;10.40;63.10;;;;;;4986329;28;20034;-66
2022/02/17 07:41:24;;;;;;;8.32;1.13;;;10.50;62.30;;;;;;4973892;28;20018;-66
2022/02/17 07:43:50;;;;;;;7.25;1.25;;;10.40;61.80;;;;;;4981102;28;20509;-66
2022/02/17 07:46:17;;;;;;;4.57;0.82;;;10.40;63.20;;;;;;4973312;28;20038;-67
2022/02/17 07:48:43;;;;;;;9.88;1.77;;;10.50;62.20;;;;;;4979255;28;20043;-66
2022/02/17 07:51:09;;;;;;;8.13;1.20;;;10.60;62.20;;;;;;4970518;28;20035;-64
2022/02/17 07:53:35;;;;;;;6.85;1.30;;;10.80;61.60;;;;;;4989365;28;20084;-65
2022/02/17 07:56:02;;;;;;;4.70;1.20;;;10.80;61.00;;;;;;4979298;28;20034;-65
2022/02/17 07:58:27;;;;;;;6.40;1.17;;;10.90;61.00;;;;;;4983896;28;20041;-66
2022/02/17 08:00:53;;;;;;;10.25;2.50;;;11.20;61.30;;;;;;4972758;28;20022;-66
2022/02/17 08:03:19;;;;;;;10.32;2.95;;;11.50;59.90;;;;;;4978723;28;20035;-66
2022/02/17 08:05:45;;;;;;;9.07;1.63;;;12.60;58.10;;;;;;4980241;28;20117;-66
2022/02/17 08:08:12;;;;;;;8.80;1.60;;;13.50;53.60;;;;;;4972458;28;20031;-66
2022/02/17 08:10:38;;;;;;;7.15;1.40;;;13.50;54.30;;;;;;4978631;28;20041;-66
2022/02/17 08:13:06;;;;;;;7.95;1.83;;;13.30;53.50;;;;;;4978720;28;20042;-66
2022/02/17 08:15:31;;;;;;;5.55;1.40;;;13.10;55.30;;;;;;4976836;28;20057;-66
2022/02/17 08:17:57;;;;;;;7.75;1.10;;;12.70;54.70;;;;;;4981562;28;20420;-66
2022/02/17 08:20:26;;;;;;;5.32;1.25;;;12.30;55.30;;;;;;4981560;28;20070;-70
2022/02/17 08:22:54;;;;;;;3.30;0.93;;;12.00;55.90;;;;;;4985857;28;20026;-68
2022/02/17 08:25:21;;;;;;;4.35;1.20;;;11.80;56.60;;;;;;4980460;28;20502;-71
2022/02/17 08:27:48;;;;;;;8.68;1.50;;;11.60;57.60;;;;;;4981765;28;20042;-70
2022/02/17 08:30:14;;;;;;;6.13;1.13;;;11.50;57.90;;;;;;4992457;28;20046;-71
2022/02/17 08:32:41;;;;;;;8.80;1.50;;;11.40;57.70;;;;;;4985561;28;20072;-71
2022/02/17 08:35:10;;;;;;;7.47;1.58;;;11.40;58.90;;;;;;4987010;28;20173;-72
2022/02/17 08:37:41;;;;;;;8.23;1.55;;;11.50;58.20;;;;;;4987621;28;20040;-69
2022/02/17 08:40:09;;;;;;;7.43;1.27;;;11.60;58.30;;;;;;4980859;28;20035;-75
2022/02/17 08:42:35;;;;;;;5.00;1.20;;;11.60;57.90;;;;;;4979675;28;20141;-74
2022/02/17 08:45:01;;;;;;;8.30;2.45;;;11.50;58.20;;;;;;4987823;28;20041;-75
2022/02/17 08:47:27;;;;;;;6.15;1.52;;;11.50;58.90;;;;;;4979910;28;20057;-72
2022/02/17 08:49:52;;;;;;;8.07;1.75;;;11.40;58.50;;;;;;4987857;28;20044;-73
2022/02/17 08:52:19;;;;;;;11.38;2.97;;;11.40;58.70;;;;;;4980158;28;20030;-73
2022/02/17 08:54:48;;;;;;;6.78;1.25;;;11.50;58.90;;;;;;4984482;28;20133;-72
2022/02/17 08:57:14;;;;;;;5.20;0.90;;;11.70;58.90;;;;;;4984714;28;20026;-73
2022/02/17 08:59:40;;;;;;;7.82;1.65;;;12.10;57.60;;;;;;4988265;28;20037;-72
2022/02/17 09:02:07;;;;;;;6.30;1.33;;;12.40;56.90;;;;;;4984453;28;20034;-71
2022/02/17 09:04:33;;;;;;;6.05;1.40;;;13.10;54.90;;;;;;4979675;28;20062;-71
2022/02/17 09:07:00;;;;;;;4.80;1.20;;;14.00;53.10;;;;;;4980920;28;20038;-71
2022/02/17 09:09:27;;;;;;;3.72;1.10;;;14.40;51.90;;;;;;4990797;28;20100;-70
2022/02/17 09:11:53;;;;;;;8.13;1.55;;;14.40;51.60;;;;;;4981165;28;20041;-69
2022/02/17 09:14:19;;;;;;;9.30;2.53;;;14.60;50.60;;;;;;4974044;28;20113;-70
2022/02/17 09:16:45;;;;;;;4.38;1.10;;;15.50;48.30;;;;;;4979274;28;20097;-70
2022/02/17 09:19:11;;;;;;;4.82;1.10;;;15.60;47.60;;;;;;4987765;28;20026;-71
2022/02/17 09:21:37;;;;;;;8.25;1.35;;;14.80;49.40;;;;;;4982878;28;20041;-69
2022/02/17 09:24:04;;;;;;;10.57;1.65;;;14.00;51.30;;;;;;4981607;28;20085;-69
2022/02/17 09:26:30;;;;;;;5.80;1.45;;;13.50;52.40;;;;;;4991687;28;20038;-71
2022/02/17 09:28:59;;;;;;;6.50;1.48;;;13.00;53.80;;;;;;4980394;28;20046;-72
2022/02/17 09:31:24;;;;;;;10.57;2.35;;;12.90;55.00;;;;;;4980623;28;20041;-70
2022/02/17 09:33:52;;;;;;;5.20;1.27;;;12.90;55.20;;;;;;4980551;28;20030;-70
2022/02/17 09:36:18;;;;;;;7.47;1.10;;;12.80;55.30;;;;;;4978170;28;20591;-70
2022/02/17 09:38:44;;;;;;;4.63;1.10;;;12.80;55.70;;;;;;4981059;28;20044;-71
2022/02/17 09:41:11;;;;;;;6.15;1.08;;;12.70;57.30;;;;;;4980440;28;20033;-72
2022/02/17 09:43:38;;;;;;;6.65;0.80;;;12.70;57.10;;;;;;4981655;28;20065;-72
2022/02/17 09:46:04;;;;;;;7.25;1.60;;;12.60;57.10;;;;;;4973938;28;20030;-70
2022/02/17 09:48:32;;;;;;;5.25;1.05;;;12.30;56.90;;;;;;4989507;28;20721;-71
2022/02/17 09:50:58;;;;;;;2.13;0.57;;;12.10;57.70;;;;;;4988766;28;20034;-71
2022/02/17 09:53:24;;;;;;;8.35;1.38;;;11.90;58.70;;;;;;4990710;28;20033;-71
2022/02/17 09:55:50;;;;;;;5.28;0.90;;;11.80;58.60;;;;;;4984631;28;20903;-70
2022/02/17 09:58:16;;;;;;;5.20;1.20;;;11.80;59.80;;;;;;4985145;28;20035;-71
2022/02/17 10:00:42;;;;;;;8.40;0.98;;;11.90;59.80;;;;;;4988813;28;20035;-72
2022/02/17 10:03:22;;;;;;;5.15;1.00;;;11.90;60.10;;;;;;4983961;28;20030;-72
2022/02/17 10:06:04;;;;;;;3.30;0.98;;;12.10;59.30;;;;;;4987712;28;20132;-70
2022/02/17 10:08:30;;;;;;;6.53;1.30;;;12.10;60.20;;;;;;4985537;28;20406;-71
2022/02/17 10:10:56;;;;;;;9.55;2.17;;;12.20;59.60;;;;;;4982496;28;20018;-72
2022/02/17 10:13:22;;;;;;;2.45;0.80;;;12.20;60.50;;;;;;4982830;28;20109;-72
2022/02/17 10:15:52;;;;;;;7.80;1.40;;;12.40;59.60;;;;;;4982315;28;20054;-71
2022/02/17 10:18:21;;;;;;;7.00;0.90;;;12.50;59.00;;;;;;4980011;28;20081;-70
2022/02/17 10:21:08;;;;;;;6.75;1.23;;;12.60;59.60;;;;;;4976758;28;20042;-72
2022/02/17 10:23:40;;;;;;;5.07;0.98;;;12.70;59.30;;;;;;4981587;28;20034;-72
2022/02/17 10:26:13;;;;;;;3.38;0.70;;;12.70;58.60;;;;;;4976270;28;20521;-73
2022/02/17 10:28:41;;;;;;;10.35;1.60;;;12.50;59.10;;;;;;4980658;28;20034;-74
2022/02/17 10:31:20;;;;;;;2.33;0.80;;;12.50;58.60;;;;;;4981376;28;20030;-68
2022/02/17 10:33:46;;;;;;;5.43;1.30;;;13.50;56.90;;;;;;4983646;28;20049;-67
2022/02/17 10:36:15;;;;;;;5.57;1.20;;;14.10;54.90;;;;;;4974643;28;20031;-68
2022/02/17 10:38:42;;;;;;;5.05;0.93;;;14.30;54.40;;;;;;4978467;28;20742;-70
2022/02/17 10:41:09;;;;;;;5.90;1.40;;;14.00;54.40;;;;;;4971775;28;20521;-67
2022/02/17 10:43:36;;;;;;;9.07;1.45;;;13.80;55.30;;;;;;4982458;28;20046;-67
2022/02/17 10:46:10;;;;;;;6.00;1.10;;;13.70;55.30;;;;;;4978113;28;20604;-66
2022/02/17 10:48:39;;;;;;;3.95;1.50;;;13.60;55.10;;;;;;4987260;28;20466;-66
2022/02/17 10:51:06;;;;;;;2.88;1.13;;;13.50;56.10;;;;;;4976037;28;20034;-66
2022/02/17 10:53:37;;;;;;;8.35;1.02;;;13.30;55.60;;;;;;4978189;28;20450;-66
2022/02/17 10:56:05;;;;;;;7.10;1.27;;;13.20;55.60;;;;;;4978045;28;20180;-66
2022/02/17 10:58:36;;;;;;;5.47;1.48;;;12.90;56.90;;;;;;4976307;28;20467;-67
2022/02/17 11:01:05;;;;;;;9.25;1.05;;;12.60;57.60;;;;;;4983963;28;20072;-66
2022/02/17 11:03:32;;;;;;;7.82;1.42;;;12.50;58.40;;;;;;4974498;28;20073;-67
2022/02/17 11:05:59;;;;;;;7.22;1.08;;;12.30;59.40;;;;;;4978051;28;20655;-66
2022/02/17 11:08:25;;;;;;;7.78;1.33;;;12.30;59.50;;;;;;4985375;28;20062;-66
2022/02/17 11:10:51;;;;;;;5.82;1.40;;;12.20;59.50;;;;;;4981229;28;20114;-67
2022/02/17 11:13:25;;;;;;;4.35;1.17;;;12.30;59.70;;;;;;4975449;28;20034;-66
2022/02/17 11:15:52;;;;;;;2.78;0.93;;;13.00;58.00;;;;;;4984486;28;20076;-66
2022/02/17 11:18:20;;;;;;;5.93;0.90;;;14.80;54.50;;;;;;4978654;28;20022;-66
2022/02/17 11:20:48;;;;;;;1.92;0.90;;;16.00;50.60;;;;;;4984216;28;20030;-67
2022/02/17 11:23:19;;;;;;;11.20;1.08;;;16.50;49.30;;;;;;4981133;28;20026;-67
2022/02/17 11:25:46;;;;;;;6.30;1.77;;;16.20;49.20;;;;;;4976819;28;20497;-67
2022/02/17 11:28:16;;;;;;;2.17;1.00;;;15.20;50.90;;;;;;4970890;28;20450;-67
2022/02/17 11:30:57;;;;;;;3.45;0.77;;;14.30;53.10;;;;;;4985387;28;20034;-64
2022/02/17 11:33:28;;;;;;;5.60;0.88;;;13.70;54.40;;;;;;4980280;28;20517;-67
2022/02/17 11:35:58;;;;;;;4.13;0.82;;;13.20;55.90;;;;;;4977530;28;20092;-67
2022/02/17 11:38:33;;;;;;;7.88;1.10;;;12.90;56.20;;;;;;4981306;28;20431;-67
2022/02/17 11:41:13;;;;;;;6.68;0.93;;;12.80;56.60;;;;;;4979196;28;20526;-67
2022/02/17 11:43:43;;;;;;;8.70;1.00;;;12.70;57.40;;;;;;4974303;28;20038;-68
2022/02/17 11:46:10;;;;;;;3.78;0.85;;;12.70;56.90;;;;;;4976630;28;20053;-67
2022/02/17 11:48:39;;;;;;;4.63;0.70;;;12.60;57.50;;;;;;4972576;28;20046;-68
2022/02/17 11:51:17;;;;;;;4.70;0.93;;;12.30;58.10;;;;;;4991928;28;20078;-66
2022/02/17 11:53:50;;;;;;;5.60;0.90;;;12.00;59.10;;;;;;4984489;28;20034;-67
2022/02/17 11:56:16;;;;;;;3.92;1.13;;;12.20;59.00;;;;;;4976879;28;20031;-65
2022/02/17 11:58:56;;;;;;;2.22;0.80;;;12.40;58.90;;;;;;4973148;28;20051;-66
2022/02/17 12:01:21;;;;;;;7.40;1.08;;;12.50;58.60;;;;;;4973223;28;20550;-65
2022/02/17 12:04:01;;;;;;;3.78;0.75;;;12.30;59.10;;;;;;4977467;28;20041;-65
2022/02/17 12:06:38;;;;;;;4.70;1.17;;;12.30;59.20;;;;;;4986789;28;20121;-66
2022/02/17 12:09:08;;;;;;;7.40;1.05;;;12.60;60.30;;;;;;4977261;28;20419;-66
2022/02/17 12:11:37;;;;;;;7.88;1.80;;;12.80;59.90;;;;;;4986243;28;20112;-66
2022/02/17 12:14:07;;;;;;;1.42;0.50;;;12.70;59.70;;;;;;4979538;28;20138;-66
2022/02/17 12:16:36;;;;;;;5.75;0.63;;;12.50;59.60;;;;;;4990224;28;20058;-65
2022/02/17 12:19:15;;;;;;;3.35;0.70;;;12.50;61.20;;;;;;4984066;28;20394;-64
2022/02/17 12:21:43;;;;;;;2.85;0.68;;;12.50;60.60;;;;;;4981716;28;20099;-67
2022/02/17 12:24:12;;;;;;;3.38;0.70;;;12.50;60.70;;;;;;4983364;28;20084;-67
2022/02/17 12:26:44;;;;;;;3.90;0.50;;;12.20;61.00;;;;;;4984255;28;20096;-67
2022/02/17 12:29:26;;;;;;;8.55;0.98;;;12.20;62.20;;;;;;4980453;28;20104;-67
2022/02/17 12:31:54;;;;;;;4.38;0.73;;;12.00;62.30;;;;;;4980382;28;20057;-67
2022/02/17 12:34:20;;;;;;;3.33;0.77;;;11.90;63.60;;;;;;4991714;28;20038;-65
2022/02/17 12:36:46;;;;;;;5.50;0.50;;;11.80;63.50;;;;;;4983343;28;20044;-68
2022/02/17 12:39:12;;;;;;;4.30;1.10;;;11.90;63.90;;;;;;4977594;28;20430;-67
2022/02/17 12:41:38;;;;;;;3.88;1.95;;;12.00;63.60;;;;;;4979241;28;20027;-66
2022/02/17 12:44:06;;;;;;;3.30;0.70;;;12.00;62.40;;;;;;4976939;28;20833;-67
2022/02/17 12:46:32;;;;;;;0.80;0.43;;;11.90;62.90;;;;;;4989931;28;20137;-67
2022/02/17 12:49:06;;;;;;;2.88;0.50;;;11.70;63.60;;;;;;4976157;28;20422;-67
2022/02/17 12:51:34;;;;;;;5.55;0.90;;;11.80;62.90;;;;;;4977835;28;20042;-67
2022/02/17 12:53:59;;;;;;;4.93;0.80;;;11.70;63.70;;;;;;4978544;28;20033;-66
2022/02/17 12:56:30;;;;;;;4.35;0.55;;;11.80;62.70;;;;;;4986775;28;20026;-67
2022/02/17 12:59:09;;;;;;;3.20;0.60;;;12.20;62.80;;;;;;4982702;28;20514;-67
2022/02/17 13:01:38;;;;;;;5.30;0.63;;;12.20;61.00;;;;;;4991330;28;20088;-67